Time;durP1;ratioP1;P1;durP2;ratioP2;P2;SDS_P1;SDS_P2;PMS_P1;PMS_P2;Temp;Humidity;BMP_temperature;BMP_pressure;BME280_temperature;BME280_humidity;BME280_pressure;Samples;Min_cycle;Max_cycle;Signal;HPM_P1;HPM_P2
2022/01/21 00:00:17;;;;;;;93.10;33.50;;;1.80;99.90;;;;;;4964093;29;20247;-84
2022/01/21 00:02:43;;;;;;;76.20;28.85;;;1.80;99.90;;;;;;4962638;29;20171;-84
2022/01/21 00:05:09;;;;;;;76.05;30.08;;;1.80;99.90;;;;;;4962310;28;20204;-84
2022/01/21 00:07:35;;;;;;;82.18;36.55;;;1.90;99.90;;;;;;4963388;28;20179;-84
2022/01/21 00:10:02;;;;;;;88.47;36.88;;;1.90;99.90;;;;;;4962941;29;20176;-84
2022/01/21 00:12:30;;;;;;;86.13;35.42;;;1.90;99.90;;;;;;4963143;28;20543;-84
2022/01/21 00:14:56;;;;;;;80.63;34.42;;;1.90;99.90;;;;;;4962535;29;20294;-84
2022/01/21 00:17:23;;;;;;;80.87;32.80;;;2.00;99.90;;;;;;4963770;28;20164;-83
2022/01/21 00:30:04;;;;;;;79.97;31.10;;;2.00;99.90;;;;;;4963387;28;20164;-84
2022/01/21 00:30:50;;;;;;;75.43;29.35;;;1.90;99.90;;;;;;4962837;29;20179;-84
2022/01/21 00:33:15;;;;;;;77.70;29.27;;;1.90;99.90;;;;;;4962005;29;20184;-84
2022/01/21 00:35:41;;;;;;;79.30;30.33;;;1.90;99.90;;;;;;4961750;28;20194;-84
2022/01/21 00:38:07;;;;;;;77.30;30.30;;;1.90;99.90;;;;;;4962080;29;20352;-84
2022/01/21 00:40:33;;;;;;;82.07;36.57;;;1.90;99.90;;;;;;4962187;29;20199;-84
2022/01/21 00:45:36;;;;;;;94.25;43.97;;;1.90;99.90;;;;;;4963018;28;20194;-84
2022/01/21 00:48:02;;;;;;;79.97;32.53;;;1.90;99.90;;;;;;4963019;28;20160;-84
2022/01/21 00:50:28;;;;;;;90.22;37.05;;;1.90;99.90;;;;;;4963139;28;20823;-84
2022/01/21 00:52:54;;;;;;;78.37;32.60;;;2.00;99.90;;;;;;4961551;29;20168;-84
2022/01/21 00:55:19;;;;;;;79.80;37.27;;;1.90;99.90;;;;;;4962595;28;20523;-84
2022/01/21 00:57:45;;;;;;;81.77;36.40;;;2.00;99.90;;;;;;4962359;28;20164;-84
2022/01/21 01:00:12;;;;;;;81.10;38.53;;;2.00;99.90;;;;;;4963212;28;20168;-84
2022/01/21 01:02:38;;;;;;;83.07;33.08;;;2.00;99.90;;;;;;4961643;28;20539;-84
2022/01/21 01:05:06;;;;;;;84.15;29.73;;;2.00;99.90;;;;;;4962720;28;20607;-84
2022/01/21 01:07:31;;;;;;;82.90;32.42;;;2.00;99.90;;;;;;4962231;28;20595;-84
2022/01/21 01:09:58;;;;;;;81.20;29.07;;;2.00;99.90;;;;;;4962848;28;20191;-84
2022/01/21 01:20:21;;;;;;;80.30;29.77;;;2.00;99.90;;;;;;4962007;29;20163;-84
2022/01/21 01:23:03;;;;;;;80.87;30.27;;;2.00;99.90;;;;;;4960806;28;20172;-84
2022/01/21 01:28:13;;;;;;;80.47;28.08;;;2.10;99.90;;;;;;4962414;29;20163;-84
2022/01/21 01:30:39;;;;;;;81.30;31.60;;;2.00;99.90;;;;;;4962252;28;20160;-84
2022/01/21 01:33:08;;;;;;;80.60;37.23;;;1.90;99.90;;;;;;5017592;23;20232;-85
2022/01/21 01:35:39;;;;;;;78.93;28.60;;;1.80;99.90;;;;;;4938837;29;20244;-85
2022/01/21 01:41:00;;;;;;;78.65;27.20;;;1.70;99.90;;;;;;4938734;29;20695;-87
2022/01/21 01:51:29;;;;;;;79.60;28.48;;;1.90;99.90;;;;;;4938819;29;20212;-87
2022/01/21 01:54:12;;;;;;;82.03;29.08;;;1.90;99.90;;;;;;4937465;29;20690;-87
2022/01/21 01:56:46;;;;;;;82.07;27.33;;;1.90;99.90;;;;;;4938141;29;20572;-87
2022/01/21 01:59:12;;;;;;;78.25;25.42;;;1.90;99.90;;;;;;4938386;29;20148;-88
2022/01/21 02:01:38;;;;;;;80.10;27.40;;;2.00;99.90;;;;;;4939065;29;20244;-88
2022/01/21 02:04:07;;;;;;;78.20;28.17;;;2.00;99.90;;;;;;4937496;29;20503;-88
2022/01/21 02:06:33;;;;;;;82.47;27.70;;;2.00;99.90;;;;;;4937664;29;20467;-87
2022/01/21 02:09:00;;;;;;;82.35;28.95;;;2.00;99.90;;;;;;4938262;29;20169;-87
2022/01/21 02:11:26;;;;;;;81.43;29.33;;;2.00;99.90;;;;;;4936910;29;20180;-87
2022/01/21 02:13:57;;;;;;;86.17;28.90;;;2.10;99.90;;;;;;4937978;29;20683;-87
2022/01/21 02:21:50;;;;;;;78.10;28.77;;;2.00;99.90;;;;;;4938205;29;20176;-85
2022/01/21 02:24:21;;;;;;;80.45;30.48;;;1.90;99.90;;;;;;4937512;29;20585;-85
2022/01/21 02:26:49;;;;;;;82.35;23.40;;;1.90;99.90;;;;;;4937749;29;20233;-85
2022/01/21 02:29:26;;;;;;;83.45;28.33;;;1.90;99.90;;;;;;4937676;29;20169;-85
2022/01/21 02:31:53;;;;;;;92.18;26.02;;;1.90;99.90;;;;;;4937180;29;20172;-85
2022/01/21 02:34:19;;;;;;;80.25;30.70;;;1.90;99.90;;;;;;4937131;29;20220;-86
2022/01/21 02:36:45;;;;;;;91.30;28.77;;;1.90;99.90;;;;;;4936632;29;20165;-88
2022/01/21 02:39:11;;;;;;;84.10;41.17;;;1.90;99.90;;;;;;4936134;29;20511;-87
2022/01/21 02:41:37;;;;;;;81.07;38.47;;;1.80;99.90;;;;;;4937704;29;20412;-88
2022/01/21 02:44:03;;;;;;;82.15;35.40;;;1.90;99.90;;;;;;4936425;29;20172;-85
2022/01/21 02:46:36;;;;;;;85.10;35.70;;;2.00;99.90;;;;;;4936193;29;20548;-87
2022/01/21 02:49:05;;;;;;;86.10;39.08;;;2.00;99.90;;;;;;4936265;29;20177;-85
2022/01/21 02:51:31;;;;;;;84.10;34.13;;;1.90;99.90;;;;;;4935832;29;20557;-85
2022/01/21 02:56:22;;;;;;;83.97;33.27;;;2.00;99.90;;;;;;4937975;29;20163;-86
2022/01/21 02:58:48;;;;;;;79.60;28.03;;;2.00;99.90;;;;;;4936814;29;20183;-86
2022/01/21 03:01:16;;;;;;;82.22;32.03;;;2.10;99.90;;;;;;4936124;29;20176;-85
2022/01/21 03:03:43;;;;;;;79.97;29.63;;;2.10;99.90;;;;;;4937231;29;20197;-85
2022/01/21 03:06:09;;;;;;;88.50;33.03;;;2.10;99.90;;;;;;4935552;29;20188;-85
2022/01/21 03:08:35;;;;;;;81.32;32.15;;;2.10;99.90;;;;;;4935447;29;20200;-85
2022/01/21 03:11:01;;;;;;;81.25;33.67;;;2.10;99.90;;;;;;4936555;29;20600;-85
2022/01/21 03:13:30;;;;;;;90.10;34.67;;;2.00;99.90;;;;;;4936480;29;20228;-85
2022/01/21 03:15:55;;;;;;;83.82;32.78;;;2.00;99.90;;;;;;4935209;29;20436;-86
2022/01/21 03:18:23;;;;;;;94.03;36.57;;;2.00;99.90;;;;;;4936369;29;20160;-85
2022/01/21 03:20:49;;;;;;;82.25;27.98;;;2.10;99.90;;;;;;4936575;29;20538;-85
2022/01/21 03:23:17;;;;;;;78.53;26.63;;;2.00;99.90;;;;;;4936753;29;20161;-85
2022/01/21 03:25:46;;;;;;;79.43;28.90;;;2.10;99.90;;;;;;4937453;29;20530;-87
2022/01/21 03:28:13;;;;;;;83.05;27.08;;;2.10;99.90;;;;;;4937307;29;20536;-87
2022/01/21 03:30:40;;;;;;;86.40;31.27;;;2.10;99.90;;;;;;4937034;29;20219;-87
2022/01/21 03:33:05;;;;;;;84.70;33.83;;;2.10;99.90;;;;;;4935839;29;20560;-87
2022/01/21 03:35:32;;;;;;;83.73;33.37;;;2.20;99.90;;;;;;4935943;29;20184;-85
2022/01/21 03:37:58;;;;;;;81.68;29.48;;;2.20;99.90;;;;;;4935160;29;20415;-85
2022/01/21 03:40:24;;;;;;;80.50;31.02;;;2.20;99.90;;;;;;4936555;29;20164;-85
2022/01/21 03:42:50;;;;;;;79.80;30.55;;;2.20;99.90;;;;;;4935060;29;20605;-85
2022/01/21 03:45:16;;;;;;;79.97;29.30;;;2.20;99.90;;;;;;4935612;29;20216;-87
2022/01/21 03:47:44;;;;;;;85.82;30.88;;;2.30;99.90;;;;;;4936789;29;20172;-87
2022/01/21 03:50:37;;;;;;;89.93;37.95;;;2.20;99.90;;;;;;4936813;29;20169;-87
2022/01/21 03:53:04;;;;;;;79.80;30.83;;;2.10;99.90;;;;;;4937323;29;20160;-88
2022/01/21 03:55:34;;;;;;;81.80;34.95;;;2.20;99.90;;;;;;4935459;29;20195;-87
2022/01/21 03:58:01;;;;;;;85.13;31.25;;;2.20;99.90;;;;;;4937103;29;20149;-87
2022/01/21 04:00:36;;;;;;;86.95;28.85;;;2.20;99.90;;;;;;4937233;29;20173;-87
2022/01/21 04:03:03;;;;;;;78.45;27.92;;;2.20;99.90;;;;;;4936930;29;20168;-87
2022/01/21 04:05:29;;;;;;;85.57;25.05;;;2.20;99.90;;;;;;4936614;29;20184;-86
2022/01/21 04:07:55;;;;;;;77.10;25.97;;;2.10;99.90;;;;;;4936193;29;20165;-85
2022/01/21 04:10:24;;;;;;;85.22;31.95;;;2.20;99.90;;;;;;4936752;29;20513;-85
2022/01/21 04:12:50;;;;;;;78.93;29.98;;;2.10;99.90;;;;;;4935968;29;20192;-85
2022/01/21 04:15:19;;;;;;;85.25;32.80;;;2.10;99.90;;;;;;4936091;29;20200;-86
2022/01/21 04:17:45;;;;;;;77.43;25.60;;;2.10;99.90;;;;;;4935899;29;20164;-85
2022/01/21 04:20:12;;;;;;;86.20;28.33;;;2.10;99.90;;;;;;4935905;29;20161;-85
2022/01/21 04:22:39;;;;;;;88.82;30.55;;;2.00;99.90;;;;;;4935988;29;20168;-85
2022/01/21 04:25:06;;;;;;;79.63;27.25;;;2.00;99.90;;;;;;4936945;29;20203;-87
2022/01/21 04:27:32;;;;;;;76.57;27.70;;;2.00;99.90;;;;;;4935368;29;20247;-87
2022/01/21 04:29:58;;;;;;;77.82;25.85;;;2.00;99.90;;;;;;4936760;29;20183;-88
2022/01/21 04:32:24;;;;;;;84.90;28.03;;;2.10;99.90;;;;;;4936744;29;20263;-87
2022/01/21 04:34:50;;;;;;;77.27;31.60;;;2.10;99.90;;;;;;4935886;29;20212;-88
2022/01/21 04:37:17;;;;;;;80.93;35.47;;;2.10;99.90;;;;;;4936662;29;20173;-87
2022/01/21 04:39:50;;;;;;;85.38;32.75;;;2.10;99.90;;;;;;4936714;29;20161;-87
2022/01/21 04:47:31;;;;;;;80.43;33.88;;;2.10;99.90;;;;;;4940662;29;20164;-88
2022/01/21 04:49:57;;;;;;;88.70;34.95;;;2.10;99.90;;;;;;4938179;29;20173;-85
2022/01/21 04:52:23;;;;;;;82.47;43.53;;;2.10;99.90;;;;;;4938158;29;20255;-85
2022/01/21 04:54:49;;;;;;;86.35;43.10;;;2.10;99.90;;;;;;4939116;29;20204;-86
2022/01/21 04:57:18;;;;;;;85.97;39.53;;;2.10;99.90;;;;;;4937711;29;20172;-85
2022/01/21 04:59:47;;;;;;;83.50;40.15;;;2.20;99.90;;;;;;4938051;29;20173;-85
2022/01/21 05:02:16;;;;;;;86.28;38.53;;;2.20;99.90;;;;;;4939179;29;20173;-86
2022/01/21 05:04:42;;;;;;;91.35;36.58;;;2.20;99.90;;;;;;4939328;29;20271;-87
2022/01/21 05:07:10;;;;;;;82.10;29.37;;;2.30;99.90;;;;;;4940433;29;20274;-87
2022/01/21 05:09:36;;;;;;;91.15;38.40;;;2.20;99.90;;;;;;4940127;29;20405;-87
2022/01/21 05:12:08;;;;;;;82.00;34.87;;;2.10;99.90;;;;;;4941011;29;20172;-87
2022/01/21 05:17:18;;;;;;;88.53;31.40;;;2.30;99.90;;;;;;4939969;29;20175;-87
2022/01/21 05:19:44;;;;;;;89.23;32.47;;;2.20;99.90;;;;;;4938202;29;20168;-87
2022/01/21 05:22:10;;;;;;;79.50;29.73;;;2.20;99.90;;;;;;4938220;29;20408;-86
2022/01/21 05:24:36;;;;;;;82.27;31.73;;;2.30;99.90;;;;;;4939093;29;20556;-87
2022/01/21 05:27:02;;;;;;;80.72;33.88;;;2.30;99.90;;;;;;4938460;29;20840;-88
2022/01/21 05:29:31;;;;;;;83.40;38.05;;;2.30;99.90;;;;;;4938635;29;20176;-87
2022/01/21 05:31:57;;;;;;;87.07;36.53;;;2.30;99.90;;;;;;4939456;29;20626;-88
2022/01/21 05:34:26;;;;;;;89.40;30.30;;;2.30;99.90;;;;;;4938162;29;20570;-87
2022/01/21 05:36:54;;;;;;;84.40;39.45;;;2.20;99.90;;;;;;4938975;29;20242;-87
2022/01/21 05:39:20;;;;;;;78.45;31.55;;;2.20;99.90;;;;;;4939374;29;20240;-87
2022/01/21 05:41:51;;;;;;;89.65;36.90;;;2.20;99.90;;;;;;4939434;29;20224;-88
2022/01/21 05:46:57;;;;;;;83.13;41.38;;;2.30;99.90;;;;;;4939645;29;20199;-87
2022/01/21 05:49:37;;;;;;;89.80;49.90;;;2.30;99.90;;;;;;4938730;29;20219;-87
2022/01/21 05:52:36;;;;;;;85.63;36.65;;;2.30;99.90;;;;;;4938039;29;20176;-87
2022/01/21 05:55:11;;;;;;;82.50;38.55;;;2.30;99.90;;;;;;4938121;29;20295;-87
2022/01/21 05:57:37;;;;;;;81.72;38.40;;;2.30;99.90;;;;;;4937436;29;20227;-87
2022/01/21 06:03:45;;;;;;;82.40;34.30;;;2.30;99.90;;;;;;4936387;29;20228;-87
2022/01/21 06:07:00;;;;;;;;;;;;;;;;;;;;;
2022/01/21 06:12:59;;;;;;;80.97;34.55;;;2.30;99.90;;;;;;4879014;29;20176;-88
2022/01/21 06:18:35;;;;;;;84.13;31.92;;;2.30;99.90;;;;;;4928339;29;20766;-88
2022/01/21 06:21:10;;;;;;;84.18;33.40;;;2.30;99.90;;;;;;4938059;29;20516;-88
2022/01/21 06:23:36;;;;;;;81.43;35.22;;;2.30;99.90;;;;;;4938118;29;20211;-87
2022/01/21 06:26:04;;;;;;;83.10;37.10;;;2.30;99.90;;;;;;4936986;29;20556;-87
2022/01/21 06:28:30;;;;;;;84.63;43.05;;;2.30;99.90;;;;;;4938004;29;20404;-87
2022/01/21 06:30:59;;;;;;;90.43;34.13;;;2.30;99.90;;;;;;4936167;29;20179;-87
2022/01/21 06:33:25;;;;;;;81.90;36.58;;;2.30;99.90;;;;;;4937725;29;20656;-87
2022/01/21 06:35:57;;;;;;;91.40;43.10;;;2.30;99.90;;;;;;4937801;29;20235;-87
2022/01/21 06:38:23;;;;;;;85.45;38.05;;;2.40;99.90;;;;;;4938177;29;20152;-87
2022/01/21 06:40:59;;;;;;;84.30;41.50;;;2.40;99.90;;;;;;4936648;29;20181;-87
2022/01/21 06:43:25;;;;;;;90.93;41.15;;;2.40;99.90;;;;;;4936571;29;20397;-87
2022/01/21 06:45:50;;;;;;;91.17;49.73;;;2.40;99.90;;;;;;4937087;29;20210;-87
2022/01/21 06:48:16;;;;;;;79.17;35.37;;;2.30;99.90;;;;;;4936756;29;20173;-87
2022/01/21 06:50:48;;;;;;;88.13;34.37;;;2.40;99.90;;;;;;4936522;29;20521;-87
2022/01/21 06:53:14;;;;;;;81.70;36.15;;;2.40;99.90;;;;;;4936831;29;20544;-88
2022/01/21 06:55:39;;;;;;;86.93;39.07;;;2.40;99.90;;;;;;4937284;29;20185;-88
2022/01/21 06:58:06;;;;;;;83.87;36.77;;;2.40;99.90;;;;;;4938227;29;20389;-88
2022/01/21 07:00:32;;;;;;;87.60;34.53;;;2.40;99.90;;;;;;4936587;29;20408;-87
2022/01/21 07:02:58;;;;;;;77.68;32.03;;;2.40;99.90;;;;;;4937914;29;20188;-88
2022/01/21 07:05:29;;;;;;;83.57;31.27;;;2.40;99.90;;;;;;4936810;29;20588;-87
2022/01/21 07:07:56;;;;;;;82.72;31.45;;;2.40;99.90;;;;;;4937819;29;20183;-87
2022/01/21 07:10:22;;;;;;;82.75;30.13;;;2.50;99.90;;;;;;4937206;29;20533;-88
2022/01/21 07:12:48;;;;;;;78.20;27.70;;;2.50;99.90;;;;;;4937939;29;20261;-88
2022/01/21 07:15:17;;;;;;;83.73;30.57;;;2.40;99.90;;;;;;4937959;29;20213;-88
2022/01/21 07:17:43;;;;;;;86.30;32.83;;;2.40;99.90;;;;;;4937648;29;20952;-88
2022/01/21 07:20:10;;;;;;;78.57;29.83;;;2.40;99.90;;;;;;4937699;29;20196;-88
2022/01/21 07:22:35;;;;;;;80.57;34.55;;;2.40;99.90;;;;;;4938830;29;20439;-88
2022/01/21 07:25:07;;;;;;;82.20;31.20;;;2.50;99.90;;;;;;4937515;29;20207;-87
2022/01/21 07:27:33;;;;;;;84.32;35.08;;;2.50;99.90;;;;;;4937784;29;20605;-88
2022/01/21 07:30:19;;;;;;;81.50;36.33;;;2.50;99.90;;;;;;4938337;29;20300;-88
2022/01/21 07:32:48;;;;;;;84.70;39.92;;;2.40;99.90;;;;;;4939290;29;20440;-87
2022/01/21 07:35:41;;;;;;;81.80;38.90;;;2.40;99.90;;;;;;4939519;29;20200;-87
2022/01/21 07:38:07;;;;;;;84.70;39.05;;;2.40;99.90;;;;;;4936962;29;20176;-87
2022/01/21 07:40:39;;;;;;;88.80;50.47;;;2.40;99.90;;;;;;4937273;29;20176;-88
2022/01/21 07:43:19;;;;;;;84.95;40.45;;;2.50;99.90;;;;;;4937910;29;20168;-88
2022/01/21 07:45:49;;;;;;;81.97;38.30;;;2.50;99.90;;;;;;4936551;29;20210;-88
2022/01/21 07:48:26;;;;;;;83.07;38.85;;;2.50;99.90;;;;;;4936117;29;20525;-88
2022/01/21 07:50:52;;;;;;;84.53;42.05;;;2.50;99.90;;;;;;4937077;29;20168;-88
2022/01/21 07:53:20;;;;;;;90.43;42.47;;;2.50;99.90;;;;;;4937740;29;20172;-88
2022/01/21 07:55:50;;;;;;;92.47;45.38;;;2.50;99.90;;;;;;4941027;29;21019;-88
2022/01/21 07:58:22;;;;;;;89.75;51.97;;;2.60;99.90;;;;;;4941658;29;20171;-88
2022/01/21 08:01:07;;;;;;;86.47;46.97;;;2.60;99.90;;;;;;4941332;29;20161;-89
2022/01/21 08:03:33;;;;;;;99.95;72.90;;;2.50;99.90;;;;;;4938006;29;20172;-89
2022/01/21 08:06:05;;;;;;;82.77;40.73;;;2.60;99.90;;;;;;4938919;29;20676;-89
2022/01/21 08:08:33;;;;;;;89.35;51.28;;;2.60;99.90;;;;;;4936986;29;20411;-89
2022/01/21 08:10:59;;;;;;;90.80;48.17;;;2.60;99.90;;;;;;4938757;29;20169;-89
2022/01/21 08:13:27;;;;;;;89.80;50.60;;;2.60;99.90;;;;;;4937468;29;20561;-89
2022/01/21 08:15:59;;;;;;;88.03;53.90;;;2.60;99.90;;;;;;4938668;29;20420;-89
2022/01/21 08:18:28;;;;;;;89.35;50.00;;;2.60;99.90;;;;;;4940486;29;20168;-88
2022/01/21 08:20:54;;;;;;;90.63;61.05;;;2.60;99.90;;;;;;4941408;29;20188;-88
2022/01/21 08:23:20;;;;;;;88.53;63.33;;;2.70;99.90;;;;;;4940256;29;20176;-88
2022/01/21 08:25:49;;;;;;;87.30;50.65;;;2.70;99.90;;;;;;4941920;29;20974;-89
2022/01/21 08:28:25;;;;;;;88.20;47.50;;;2.80;99.90;;;;;;4943918;29;20175;-88
2022/01/21 08:30:53;;;;;;;86.43;50.30;;;2.70;99.90;;;;;;4942028;29;20532;-88
2022/01/21 08:33:20;;;;;;;102.28;78.20;;;2.80;99.90;;;;;;4942244;29;20181;-88
2022/01/21 08:35:46;;;;;;;88.47;45.65;;;2.80;99.90;;;;;;4943873;29;20212;-88
2022/01/21 08:38:12;;;;;;;82.07;41.87;;;2.90;99.90;;;;;;4942131;29;20172;-88
2022/01/21 08:40:41;;;;;;;89.20;47.63;;;2.90;99.90;;;;;;4942371;29;20407;-88
2022/01/21 08:43:07;;;;;;;91.30;47.25;;;2.90;99.90;;;;;;4941742;29;20165;-88
2022/01/21 08:45:51;;;;;;;86.30;47.40;;;2.90;99.90;;;;;;4941679;29;20253;-88
2022/01/21 08:48:17;;;;;;;88.43;43.05;;;2.90;99.90;;;;;;4940364;29;20943;-88
2022/01/21 08:50:42;;;;;;;83.07;41.67;;;2.90;99.90;;;;;;4941152;29;20184;-88
2022/01/21 08:55:59;;;;;;;85.57;36.92;;;2.90;99.90;;;;;;4941795;29;20243;-88
2022/01/21 08:58:25;;;;;;;84.93;41.38;;;3.00;99.90;;;;;;4942449;29;20149;-88
2022/01/21 09:00:52;;;;;;;85.43;37.00;;;3.00;99.90;;;;;;4940537;29;20200;-88
2022/01/21 09:03:21;;;;;;;89.07;44.75;;;3.00;99.90;;;;;;4941625;29;20180;-88
2022/01/21 09:05:50;;;;;;;84.95;43.80;;;3.10;99.90;;;;;;4942128;29;20191;-88
2022/01/21 09:08:18;;;;;;;84.22;39.72;;;3.00;99.90;;;;;;4943396;29;20255;-89
2022/01/21 09:10:44;;;;;;;88.93;46.90;;;3.10;99.90;;;;;;4947707;29;20240;-89
2022/01/21 09:13:10;;;;;;;91.40;40.25;;;3.10;99.90;;;;;;4954574;29;20224;-88
2022/01/21 09:15:36;;;;;;;80.43;32.67;;;3.20;99.90;;;;;;4954713;29;20236;-89
2022/01/21 09:18:33;;;;;;;87.22;42.65;;;3.20;99.90;;;;;;4953622;29;20413;-88
2022/01/21 09:21:02;;;;;;;80.97;34.22;;;3.20;99.90;;;;;;4954127;29;20704;-89
2022/01/21 09:23:38;;;;;;;82.82;32.95;;;3.30;99.90;;;;;;4954728;29;20168;-88
2022/01/21 09:26:42;;;;;;;83.03;40.75;;;3.30;99.90;;;;;;4952386;29;20742;-88
2022/01/21 09:29:29;;;;;;;82.22;35.10;;;3.30;99.90;;;;;;4947899;29;20184;-88
2022/01/21 09:31:55;;;;;;;84.55;33.17;;;3.40;99.90;;;;;;4942862;29;20176;-87
2022/01/21 09:34:21;;;;;;;82.83;33.70;;;3.50;99.90;;;;;;4939838;29;20204;-87
2022/01/21 09:36:47;;;;;;;84.60;37.92;;;3.40;99.90;;;;;;4940130;29;20529;-87
2022/01/21 09:39:13;;;;;;;85.30;38.13;;;3.40;99.90;;;;;;4941073;29;20167;-87
2022/01/21 09:41:42;;;;;;;86.40;30.38;;;3.50;99.90;;;;;;4939305;29;20536;-87
2022/01/21 09:44:14;;;;;;;82.93;30.00;;;3.60;99.90;;;;;;4938216;29;20196;-87
2022/01/21 09:46:45;;;;;;;81.40;29.92;;;3.60;99.90;;;;;;4939882;29;20157;-87
2022/01/21 09:49:26;;;;;;;90.07;29.88;;;3.60;99.90;;;;;;4939970;29;20169;-88
2022/01/21 09:52:01;;;;;;;80.95;26.50;;;3.60;99.90;;;;;;4941204;29;20520;-87
2022/01/21 09:54:34;;;;;;;90.95;27.63;;;3.70;99.90;;;;;;4948575;29;20203;-88
2022/01/21 09:57:03;;;;;;;81.93;29.63;;;3.70;99.90;;;;;;4947831;29;20165;-88
2022/01/21 09:59:34;;;;;;;81.18;30.20;;;3.80;99.90;;;;;;4947390;29;20173;-88
2022/01/21 10:02:08;;;;;;;79.22;28.98;;;3.70;99.90;;;;;;4948993;29;20196;-88
2022/01/21 10:04:41;;;;;;;81.57;28.60;;;3.80;99.90;;;;;;4946882;29;20200;-88
2022/01/21 10:07:15;;;;;;;87.95;31.05;;;3.80;99.90;;;;;;4944781;29;20191;-88
2022/01/21 10:09:45;;;;;;;82.50;34.55;;;3.80;99.90;;;;;;4941871;29;20164;-88
2022/01/21 10:12:11;;;;;;;83.53;38.38;;;4.00;99.90;;;;;;4940912;29;20263;-88
2022/01/21 10:14:41;;;;;;;87.45;30.08;;;4.10;99.90;;;;;;4940218;29;20211;-88
2022/01/21 10:17:08;;;;;;;84.03;32.63;;;4.10;99.90;;;;;;4939683;29;20561;-88
2022/01/21 10:19:45;;;;;;;83.57;30.35;;;4.10;99.90;;;;;;4940858;29;20193;-88
2022/01/21 10:22:18;;;;;;;81.05;31.13;;;4.10;99.90;;;;;;4940813;29;20183;-88
2022/01/21 10:24:58;;;;;;;83.78;35.83;;;4.10;99.90;;;;;;4940880;29;20189;-88
2022/01/21 10:27:31;;;;;;;82.75;31.65;;;4.20;99.90;;;;;;4940359;29;20537;-87
2022/01/21 10:29:58;;;;;;;81.05;31.17;;;4.30;99.90;;;;;;4939457;29;20232;-88
2022/01/21 10:32:42;;;;;;;86.00;37.35;;;4.40;99.90;;;;;;4939171;29;20189;-88
2022/01/21 10:35:32;;;;;;;86.95;31.00;;;4.50;99.90;;;;;;4940126;29;20564;-88
2022/01/21 10:38:28;;;;;;;82.43;40.00;;;4.60;99.90;;;;;;4939289;29;20197;-88
2022/01/21 10:41:06;;;;;;;89.68;48.10;;;4.70;99.90;;;;;;4938019;29;20160;-88
2022/01/21 10:43:33;;;;;;;95.95;59.80;;;4.70;99.90;;;;;;4938301;29;20220;-87
2022/01/21 10:46:00;;;;;;;98.07;62.70;;;4.70;99.90;;;;;;4939323;29;20188;-88
2022/01/21 10:48:50;;;;;;;86.55;51.13;;;4.80;99.90;;;;;;4938168;29;20176;-88
2022/01/21 10:51:24;;;;;;;106.43;46.20;;;4.80;99.90;;;;;;4939338;29;20173;-88
2022/01/21 10:53:50;;;;;;;87.38;47.65;;;4.70;99.90;;;;;;4939720;29;20219;-87
2022/01/21 10:56:18;;;;;;;89.40;51.47;;;4.70;99.90;;;;;;4940093;29;20165;-87
2022/01/21 10:58:56;;;;;;;86.85;45.20;;;4.80;99.90;;;;;;4939614;29;20408;-86
2022/01/21 11:01:30;;;;;;;81.57;32.63;;;4.90;99.90;;;;;;4940003;29;20211;-88
2022/01/21 11:04:12;;;;;;;90.85;39.17;;;4.90;99.90;;;;;;4940348;29;20736;-88
2022/01/21 11:06:57;;;;;;;78.80;29.67;;;4.90;99.90;;;;;;4939464;29;20184;-88
2022/01/21 11:09:31;;;;;;;77.40;26.33;;;5.00;99.90;;;;;;4940229;29;20236;-88
2022/01/21 11:12:16;;;;;;;79.22;26.40;;;5.00;99.90;;;;;;4938823;29;20165;-87
2022/01/21 11:15:04;;;;;;;81.65;25.17;;;4.90;99.90;;;;;;4939474;29;20768;-87
2022/01/21 11:17:30;;;;;;;78.97;29.58;;;4.90;99.90;;;;;;4938084;29;20181;-88
2022/01/21 11:20:07;;;;;;;79.70;25.07;;;5.00;99.90;;;;;;4939563;29;20168;-88
2022/01/21 11:22:52;;;;;;;83.78;23.33;;;5.00;99.90;;;;;;4939438;29;20412;-88
2022/01/21 11:25:18;;;;;;;77.47;23.15;;;5.10;99.90;;;;;;4939409;29;20191;-87
2022/01/21 11:27:56;;;;;;;80.97;28.45;;;5.20;99.90;;;;;;4939033;29;20243;-88
2022/01/21 11:30:22;;;;;;;75.47;21.95;;;5.20;99.90;;;;;;4939254;29;20164;-88
2022/01/21 11:32:47;;;;;;;76.10;22.47;;;5.20;99.90;;;;;;4937787;29;20284;-87
2022/01/21 11:35:13;;;;;;;76.63;26.20;;;5.10;99.90;;;;;;4938672;29;20463;-88
2022/01/21 11:37:42;;;;;;;76.60;21.33;;;5.20;99.90;;;;;;4937675;29;20172;-88
2022/01/21 11:40:11;;;;;;;76.15;20.38;;;5.30;99.90;;;;;;4939524;29;20169;-87
2022/01/21 11:42:39;;;;;;;81.90;21.25;;;5.30;99.90;;;;;;4937425;29;20172;-88
2022/01/21 11:45:19;;;;;;;79.35;22.10;;;5.30;99.90;;;;;;4938119;29;20224;-88
2022/01/21 11:48:12;;;;;;;80.25;23.92;;;5.20;99.90;;;;;;4939773;29;20153;-88
2022/01/21 11:50:36;;;;;;;75.82;21.25;;;5.30;99.90;;;;;;4939121;29;20168;-88
2022/01/21 11:53:02;;;;;;;80.22;23.10;;;5.30;99.90;;;;;;4942110;29;20599;-88
2022/01/21 11:55:37;;;;;;;77.57;21.33;;;5.40;99.90;;;;;;4942889;29;20284;-88
2022/01/21 11:58:23;;;;;;;81.05;23.10;;;5.40;99.90;;;;;;4941512;29;20168;-87
2022/01/21 12:00:51;;;;;;;76.05;20.33;;;5.50;99.90;;;;;;4942322;29;20259;-88
2022/01/21 12:03:25;;;;;;;78.15;28.48;;;5.50;99.90;;;;;;4941801;29;20183;-88
2022/01/21 12:05:51;;;;;;;80.43;26.40;;;5.50;99.90;;;;;;4943856;29;20216;-88
2022/01/21 12:08:49;;;;;;;75.97;25.13;;;5.50;99.90;;;;;;4943577;29;20180;-87
2022/01/21 12:11:35;;;;;;;77.13;23.73;;;5.50;99.90;;;;;;4942740;29;20416;-88
2022/01/21 12:14:05;;;;;;;76.82;26.75;;;5.60;99.90;;;;;;4944598;29;20177;-88
2022/01/21 12:16:56;;;;;;;84.57;35.38;;;5.70;99.90;;;;;;4943154;29;20224;-88
2022/01/21 12:19:35;;;;;;;79.35;32.78;;;5.70;99.90;;;;;;4944580;29;20648;-88
2022/01/21 12:22:16;;;;;;;80.50;36.08;;;5.70;99.90;;;;;;4944283;29;20152;-88
2022/01/21 12:25:12;;;;;;;85.88;41.47;;;5.80;99.90;;;;;;4943116;29;20200;-88
2022/01/21 12:27:40;;;;;;;84.43;37.60;;;5.70;99.90;;;;;;4940997;29;20544;-88
2022/01/21 12:30:37;;;;;;;;;;;;;;;;;;;;;
2022/01/21 12:33:09;;;;;;;80.03;30.05;;;5.70;99.90;;;;;;4943937;29;20619;-88
2022/01/21 12:35:36;;;;;;;85.03;34.92;;;5.70;99.90;;;;;;4944094;29;20196;-88
2022/01/21 12:41:00;;;;;;;78.13;31.40;;;5.60;99.90;;;;;;4941059;29;20153;-88
2022/01/21 12:43:42;;;;;;;85.63;38.90;;;5.50;99.90;;;;;;4941087;29;20680;-88
2022/01/21 12:46:15;;;;;;;80.38;29.23;;;5.50;99.90;;;;;;4940123;29;20608;-88
2022/01/21 12:48:43;;;;;;;85.57;26.60;;;5.50;99.90;;;;;;4941203;29;20172;-88
2022/01/21 12:51:33;;;;;;;77.90;23.65;;;5.50;99.90;;;;;;4941954;29;20164;-88
2022/01/21 12:56:46;;;;;;;85.43;28.50;;;5.50;99.90;;;;;;4942364;29;20159;-88
2022/01/21 12:59:16;;;;;;;85.60;24.05;;;5.60;99.90;;;;;;4941019;29;20177;-88
2022/01/21 13:01:42;;;;;;;79.15;24.95;;;5.70;99.90;;;;;;4943251;29;20165;-88
2022/01/21 13:04:50;;;;;;;79.95;24.48;;;5.70;99.90;;;;;;4942451;29;20664;-88
2022/01/21 13:07:19;;;;;;;78.50;26.95;;;5.70;99.90;;;;;;4940796;29;20164;-85
2022/01/21 13:10:02;;;;;;;77.13;22.63;;;5.70;99.90;;;;;;4941900;29;20318;-88
2022/01/21 13:15:49;;;;;;;80.43;26.27;;;5.70;99.90;;;;;;4944437;29;20207;-88
2022/01/21 13:18:24;;;;;;;82.72;26.15;;;5.70;99.90;;;;;;4942768;29;20184;-88
2022/01/21 13:20:54;;;;;;;78.65;24.35;;;5.60;99.90;;;;;;4942862;29;20161;-88
2022/01/21 13:23:36;;;;;;;78.97;24.23;;;5.60;99.90;;;;;;4943186;29;20188;-88
2022/01/21 13:26:13;;;;;;;81.78;26.55;;;5.50;99.90;;;;;;4942485;29;20188;-88
2022/01/21 13:29:10;;;;;;;78.45;25.25;;;5.50;99.90;;;;;;4942457;29;20207;-88
2022/01/21 13:31:52;;;;;;;78.90;24.13;;;5.50;99.90;;;;;;4943447;29;20172;-88
2022/01/21 13:34:46;;;;;;;83.70;30.17;;;5.50;99.90;;;;;;5051983;23;20216;-88
2022/01/21 13:41:32;;;;;;;79.93;35.13;;;5.40;99.90;;;;;;4938949;29;20204;-88
2022/01/21 13:45:28;;;;;;;;;;;;;;;;;;;;;
2022/01/21 13:54:46;;;;;;;84.95;33.80;;;5.50;99.90;;;;;;4868219;29;20632;-88
2022/01/21 14:01:49;;;;;;;;;;;;;;;;;;;;;
2022/01/21 14:07:52;;;;;;;84.63;28.67;;;5.50;99.90;;;;;;4868326;29;20238;-88
2022/01/21 14:10:46;;;;;;;85.47;33.53;;;5.50;99.90;;;;;;4875311;29;20211;-88
2022/01/21 14:16:46;;;;;;;86.93;43.35;;;5.50;99.90;;;;;;4891156;29;20202;-88
2022/01/21 14:19:38;;;;;;;90.38;39.72;;;5.50;99.90;;;;;;4874891;29;20314;-88
2022/01/21 14:23:11;;;;;;;89.32;50.08;;;5.60;99.90;;;;;;4875985;29;20275;-88
2022/01/21 14:30:39;;;;;;;97.80;73.28;;;5.50;99.90;;;;;;3106683;27;20220;-88
2022/01/21 14:33:48;;;;;;;102.45;79.47;;;5.50;99.90;;;;;;4926262;29;20200;-88
2022/01/21 14:41:44;;;;;;;96.10;72.07;;;5.40;99.90;;;;;;4964178;23;20243;-87
2022/01/21 14:44:13;;;;;;;101.07;67.25;;;5.40;99.90;;;;;;4941002;29;20258;-88
2022/01/21 15:00:03;;;;;;;96.63;46.55;;;5.30;99.90;;;;;;4936019;29;20172;-88
2022/01/21 15:03:11;;;;;;;87.55;41.28;;;5.20;99.90;;;;;;4941308;29;20180;-88